• Join FlightAware (Why Join?)
  • Login
  • US Flag 
07:59PM EST


 

Airport Tracker/Info


-or-


 

Live Flight TrackerFlight Track Log ✈ DAL681 ✈ 07-05-2013 ✈ KATL - MDSD / SDQ

Flight Track Log - Related Links

Times and Time Zones

All times are in EDT time to prevent confusion due to time zone crossing. See the DAL681 flight status page for this flight to view local times or setup timezone preferences in your user account.

Time Position Orientation Groundspeed Altitude Reporting Facility
EDT Latitude Longitude Course Direction KTS MPH feet Rate Location/Type
10:52AM 33.6167 -84.4667 145° Southeast 166 191 2,400  Level Atlanta TRACON
10:53AM 33.6000 -84.5167 248° West 224 258 2,900 1,620 Climbing Atlanta TRACON
10:54AM 33.5333 -84.5833 220° Southwest 281 323 5,700 2,460 Climbing Atlanta TRACON
10:55AM 33.2641 -84.1471 140° Southeast  Level FlightAware Approximate
10:55AM 33.4667 -84.5833 180° South 293 337 7,900  Level Atlanta TRACON
10:56AM 33.1669 -84.0501 140° Southeast  Level FlightAware Approximate
10:57AM 33.0736 -83.9585 145° Southeast  Level FlightAware Approximate
10:57AM 33.3303 -84.3819 129° Southeast 335 386 11,500  Level Atlanta Center
10:58AM 33.2658 -84.2700 125° Southeast 381 438 13,400 1,800 Climbing Atlanta Center
10:59AM 33.1867 -84.1728 134° Southeast 402 463 15,100 1,800 Climbing Atlanta Center
11:00AM 33.0928 -84.0858 142° Southeast 418 481 17,000 1,500 Climbing Atlanta Center
11:01AM 33.0053 -84.0042 142° Southeast 429 494 18,200 1,920 Climbing Atlanta Center
11:02AM 32.9050 -83.9275 147° Southeast 434 499 20,900 1,980 Climbing Atlanta Center
11:03AM 32.8047 -83.8461 146° Southeast 439 505 22,200 1,260 Climbing Atlanta Center
11:04AM 32.7022 -83.7625 146° Southeast 439 505 23,500 1,260 Climbing Atlanta Center
11:05AM 32.5936 -83.6886 150° Southeast 439 505 24,800 1,200 Climbing Atlanta Center
11:06AM 32.4847 -83.6103 149° Southeast 452 520 26,000 1,020 Climbing Atlanta Center
11:07AM 32.3736 -83.5297 149° Southeast 456 525 26,800 660 Climbing Jacksonville Center
11:08AM 32.2592 -83.4406 147° Southeast 499 574 27,300 600 Climbing Jacksonville Center
11:09AM 32.1533 -83.3294 138° Southeast 505 581 28,100 900 Climbing Jacksonville Center
11:10AM 32.0472 -83.2186 138° Southeast 510 587 29,100 780 Climbing Jacksonville Center
11:11AM 31.9367 -83.1056 139° Southeast 516 594 29,700 780 Climbing Jacksonville Center
11:12AM 31.8283 -82.9953 139° Southeast 516 594 30,700 960 Climbing Jacksonville Center
11:13AM 31.7197 -82.8853 139° Southeast 516 594 31,700 900 Climbing Jacksonville Center
11:14AM 31.6236 -82.7900 140° Southeast 511 588 32,500 660 Climbing Jacksonville Center
11:15AM 31.5192 -82.6831 139° Southeast 506 582 33,100 720 Climbing Jacksonville Center
11:16AM 31.4125 -82.5761 139° Southeast 506 582 34,000 240 Climbing Jacksonville Center
11:17AM 31.2972 -82.4647 140° Southeast 501 577 33,600 -720 Descending Jacksonville Center
11:18AM 31.1925 -82.3608 140° Southeast 501 577 32,600 -900 Descending Jacksonville Center
11:19AM 31.0897 -82.2569 139° Southeast 501 577 31,900 -300 Descending Jacksonville Center
11:20AM 30.9867 -82.1533 139° Southeast 501 577 32,000  Climbing Jacksonville Center
11:21AM 30.8881 -82.0550 139° Southeast 488 562 31,900  Descending Jacksonville Center
11:22AM 30.7872 -81.9542 139° Southeast 482 555 32,000  Climbing Jacksonville Center
11:23AM 30.6861 -81.8539 140° Southeast 482 555 32,000  Level Jacksonville Center
11:24AM 30.5850 -81.7561 140° Southeast 477 549 32,000 -60 Level Jacksonville Center
11:25AM 30.4861 -81.6558 139° Southeast 477 549 31,900 -60 Descending Jacksonville Center
11:26AM 30.3847 -81.5608 141° Southeast 477 549 31,900  Level Jacksonville Center
11:27AM 30.2756 -81.4903 151° Southeast 466 536 32,000  Climbing Jacksonville Center
11:28AM 30.1581 -81.4417 160° South 446 513 31,900 -60 Descending Jacksonville Center
11:29AM 30.0386 -81.3978 162° South 446 513 31,900  Level Jacksonville Center
11:30AM 29.9358 -81.3561 161° South 446 513 32,000  Climbing Jacksonville Center
11:31AM 29.8183 -81.3125 162° South 441 507 31,900  Descending Jacksonville Center
11:32AM 29.7028 -81.2667 161° South 441 507 32,000  Climbing Jacksonville Center
11:33AM 29.5875 -81.2231 162° South 441 507 32,000 -60 Level Jacksonville Center
11:35AM 29.3531 -81.1342 162° South 443 510 31,900 -60 Descending Miami Center
11:36AM 29.2469 -81.0564 147° Southeast 443 510 31,900  Level Miami Center
11:37AM 29.1497 -80.9553 138° Southeast 456 525 32,000  Climbing Miami Center
11:38AM 29.0547 -80.8494 136° Southeast 469 540 32,000  Level Miami Center
11:39AM 28.9597 -80.7394 135° Southeast 475 547 32,000  Level Miami Center
11:40AM 28.8706 -80.6439 137° Southeast 486 559 32,000  Level Miami Center
11:41AM 28.7736 -80.5175 131° Southeast 486 559 32,000  Level Miami Center
11:42AM 28.6889 -80.3989 129° Southeast 486 559 32,000  Level Miami Center
11:43AM 28.6044 -80.2756 128° Southeast 493 567 32,000  Level Miami Center
11:44AM 28.5297 -80.1669 128° Southeast 498 573 32,000  Level Miami Center
11:45AM 28.4406 -80.0461 130° Southeast 493 567 32,000  Level Miami Center
11:46AM 28.3475 -79.9092 128° Southeast 493 567 32,000  Level Miami Center
11:47AM 28.2683 -79.8033 130° Southeast 493 567 32,000  Level Miami Center
11:48AM 28.1831 -79.6833 129° Southeast 493 567 32,000  Level Miami Center
11:49AM 28.0978 -79.5633 129° Southeast 493 567 32,000  Level Miami Center
11:50AM 28.0122 -79.4439 129° Southeast 487 560 32,000 -60 Level Miami Center
11:51AM 27.9286 -79.3267 129° Southeast 487 560 31,900  Descending Miami Center
11:52AM 27.8369 -79.1978 129° Southeast 487 560 32,000  Climbing Miami Center
11:53AM 27.7511 -79.0789 129° Southeast 482 555 32,000  Level Miami Center
11:54AM 27.6733 -78.9742 130° Southeast 482 555 32,000 300 Level Miami Center
11:55AM 27.5894 -78.8578 129° Southeast 482 555 32,600 480 Climbing Miami Center
11:56AM 27.4950 -78.7297 130° Southeast 477 549 33,000 120 Climbing Miami Center
11:57AM 27.4169 -78.6208 129° Southeast 482 555 32,900  Descending Miami Center
11:58AM 27.3244 -78.5047 132° Southeast 487 560 33,000  Climbing Miami Center
11:59AM 27.2358 -78.3961 133° Southeast 487 560 33,000  Level Miami Center
12:00PM 27.1347 -78.2686 132° Southeast 484 557 33,000  Level Miami Center
12:01PM 27.0439 -78.1603 133° Southeast 478 550 33,000  Level Miami Center
12:02PM 26.9508 -78.0589 136° Southeast 468 539 33,000  Level Miami Center
12:03PM 26.8597 -77.9464 132° Southeast 468 539 33,000  Level Miami Center
12:04PM 26.7686 -77.8431 135° Southeast 474 545 33,000  Level Miami Center
12:05PM 26.6772 -77.7306 132° Southeast 474 545 33,000  Level Miami Center
12:06PM 26.5858 -77.6208 133° Southeast 474 545 33,000  Level Miami Center
12:07PM 26.5153 -77.5322 132° Southeast 480 552 33,000  Level Miami Center
12:08PM 26.4114 -77.4133 134° Southeast 460 529 33,000  Level Miami Center
12:09PM 26.3197 -77.3014 132° Southeast 472 543 33,000  Level Miami Center
12:10PM 26.2281 -77.1922 133° Southeast 483 556 33,000  Level Miami Center
12:11PM 26.1364 -77.0833 133° Southeast 483 556 33,000  Level Miami Center
12:12PM 26.0425 -76.9744 134° Southeast 483 556 33,000  Level Miami Center
12:13PM 25.9506 -76.8633 133° Southeast 483 556 33,000  Level Miami Center
12:14PM 25.8586 -76.7572 134° Southeast 483 556 33,000  Level Miami Center
12:15PM 25.7644 -76.6489 134° Southeast 483 556 33,000  Level Miami Center
12:16PM 25.6703 -76.5383 133° Southeast 483 556 33,000  Level Miami Center
12:17PM 25.5739 -76.4303 135° Southeast 483 556 33,000  Level Miami Center
12:18PM 25.4836 -76.3222 133° Southeast 483 556 33,000  Level Miami Center
12:19PM 25.3892 -76.2122 134° Southeast 483 556 33,000  Level Miami Center
12:20PM 25.2944 -76.1025 134° Southeast 483 556 33,000  Level Miami Center
12:21PM 25.1956 -75.9883 134° Southeast 483 556 33,000  Level Miami Center
12:22PM 25.0989 -75.8811 135° Southeast 483 556 33,000  Level Miami Center
12:23PM 25.0061 -75.7742 134° Southeast 483 556 33,000  Level Miami Center
12:24PM 24.9114 -75.6650 134° Southeast 483 556 33,000  Level Miami Center
12:25PM 24.8206 -75.5606 134° Southeast 483 556 33,000  Level Miami Center
12:26PM 24.7256 -75.4564 135° Southeast 483 556 33,000  Level Miami Center
12:27PM 24.6325 -75.3478 133° Southeast 477 549 33,000  Level Miami Center
12:28PM 24.5414 -75.2414 133° Southeast 477 549 33,000  Level Miami Center
12:29PM 24.4442 -75.1353 135° Southeast 477 549 33,000  Level Miami Center
12:30PM 24.3508 -75.0294 134° Southeast 477 549 33,000  Level Miami Center
12:31PM 24.2578 -74.9236 134° Southeast 477 549 33,000  Level Miami Center
12:32PM 24.1622 -74.8181 135° Southeast 477 549 33,000  Level Miami Center
12:33PM 24.0794 -74.7261 135° Southeast 477 549 33,000  Level Miami Center
12:34PM 23.9839 -74.6208 135° Southeast 477 549 33,000  Level Miami Center
12:35PM 23.8925 -74.5158 134° Southeast 477 549 33,000  Level Miami Center
12:36PM 23.7989 -74.4131 135° Southeast 477 549 33,000  Level Miami Center
12:37PM 23.7053 -74.3106 135° Southeast 477 549 33,000  Level Miami Center
12:38PM 23.6072 -74.2036 135° Southeast 477 549 33,000  Level Miami Center
12:39PM 23.5133 -74.1036 136° Southeast 477 549 33,000  Level Miami Center
12:40PM 23.4133 -73.9972 136° Southeast 483 556 33,000  Level Miami Center
12:41PM 23.3214 -73.8908 133° Southeast 483 556 33,000  Level Miami Center
12:42PM 23.2272 -73.7844 134° Southeast 483 556 33,000  Level Miami Center
12:43PM 23.1311 -73.6806 135° Southeast 483 556 33,000  Level Miami Center
12:44PM 23.0350 -73.5747 135° Southeast 483 556 33,000  Level Miami Center
12:45PM 22.9367 -73.4733 136° Southeast 488 562 33,000  Level Miami Center
12:46PM 22.8403 -73.3678 135° Southeast 483 556 33,000  Level Miami Center
12:47PM 22.7500 -73.2667 134° Southeast 483 556 33,000  Level Miami Center
12:48PM 22.6536 -73.1636 135° Southeast 483 556 33,000  Level Miami Center
12:49PM 22.5592 -73.0628 135° Southeast 478 550 33,000  Level Miami Center
12:50PM 22.4647 -72.9600 135° Southeast 478 550 33,000  Level Miami Center
12:51PM 22.3594 -72.8464 135° Southeast 478 550 33,000  Level Miami Center
12:52PM 22.2733 -72.7525 135° Southeast 478 550 33,000  Level Miami Center
12:53PM 22.1789 -72.6503 135° Southeast 478 550 33,000  Level Miami Center
12:54PM 22.0819 -72.5503 136° Southeast 478 550 33,000  Level Miami Center
12:55PM 21.9850 -72.4458 135° Southeast 478 550 33,000  Level Miami Center
12:56PM 21.8925 -72.3439 134° Southeast 478 550 33,000  Level Miami Center
12:57PM 21.7956 -72.2422 136° Southeast 478 550 33,000  Level Miami Center
12:58PM 21.6986 -72.1428 136° Southeast 478 550 33,000  Level Miami Center
12:59PM 21.6033 -72.0392 135° Southeast 478 550 33,000  Level Miami Center
01:00PM 21.5083 -71.9400 136° Southeast 478 550 33,000  Level Miami Center
01:01PM 21.4133 -71.8389 135° Southeast 478 550 33,000  Level Miami Center
01:02PM 21.3183 -71.7400 136° Southeast 478 550 33,000  Level Miami Center
01:03PM 21.2125 -71.6283 135° Southeast 478 550 33,000  Level Miami Center
01:04PM 21.1150 -71.5275 136° Southeast 478 550 33,000  Level Miami Center
01:05PM 21.0197 -71.4247 135° Southeast 478 550 33,000  Level Miami Center
01:06PM 20.9200 -71.3222 136° Southeast 478 550 33,000  Level Miami Center
01:07PM 20.8247 -71.2217 135° Southeast 483 556 33,000  Level Miami Center
01:08PM 20.7294 -71.1217 136° Southeast 483 556 33,000  Level Miami Center
01:09PM 20.6317 -71.0172 135° Southeast 478 550 33,000  Level Miami Center
01:10PM 20.5383 -70.9194 136° Southeast 478 550 33,000  Level Miami Center
01:11PM 20.4367 -70.8242 139° Southeast 478 550 33,000  Level Miami Center
01:13PM 20.2634 -70.7292 162° South  Level FlightAware Approximate
01:20PM 19.5360 -70.2931 131° Southeast  Level FlightAware Approximate
01:21PM 19.4564 -70.1917 128° Southeast  Level FlightAware Approximate
01:22PM 19.3790 -70.0884 128° Southeast  Level FlightAware Approximate
01:23PM 19.3015 -69.9852 128° Southeast  Level FlightAware Approximate
01:24PM 19.2102 -69.9034 163° South  Level FlightAware Approximate
01:25PM 19.0906 -69.8672 164° South  Level FlightAware Approximate
01:26PM 18.9710 -69.8308 164° South  Level FlightAware Approximate
01:27PM 18.8515 -69.7940 164° South  Level FlightAware Approximate
01:28PM 18.7326 -69.7553 162° South  Level FlightAware Approximate
01:29PM 18.6150 -69.7126 159° South  Level FlightAware Approximate
01:30PM 18.4946 -69.6812 159° South  Level FlightAware Approximate
01:31PM 18.4297 -69.6689 159° South  Level Estimated
01:32PM 18.4297 -69.6689 159° South  Level Estimated
01:33PM 18.4297 -69.6689 159° South  Level Estimated
01:34PM 18.4297 -69.6689 159° South  Level Estimated
01:35PM 18.4297 -69.6689 159° South  Level Estimated
01:36PM 18.4297 -69.6689 159° South  Level Estimated
01:37PM 18.4297 -69.6689 159° South  Level Estimated
01:38PM 18.4297 -69.6689 159° South  Level Estimated